Huvudsida
METAR-TAF:

METAR-TAF

Flygplatser :

King Hussein International Airport

Akaba, Jordanien

latitud: 29-38N, longitud: 035-01E, höjd: 53 m

Aktuellt väderrapport

Denna rapport gjordes för 4 timmar och 28 minuter sedan, klockan 04:00 UTC
Stilla vind
Temperatur 14°C
Fuktighet 67%
Tryck 1017 hPa
Sikt 10 km eller mer
Inga moln under 1 500 m eller inga cumulonimbus

METAR: OJAQ 220400Z 00000KT CAVOK 14/08 Q1017 NOSIG

Tid: 10:28 (08:28 UTC)

Väderprognos

Denna rapport gjordes för 3 timmar och 56 minuter sedan, klockan 04:32 UTC
Prognos gäller från 22 kl. 06 UTC till 23 kl. 12 UTC
Vind 10 kt från nord
Sikt: 7000 m
Få moln på en höjd av 4000 ft

TAF: OJAQ 220432Z 2206/2312 35010KT 7000 FEW040

Aktuella väderrapporter och prognoser från 4000 flygplatser (METAR- och TAF-rapporter).

De tillgängliga stationerna syns som gula och röda prickar på kartan.

För musen över prickarna för att se namnen på stationerna.

Klicka sedan för att få väderrapporter och prognoser.

För att ändra kartan: Klicka på de gröna knapparna med ett svart kors på för att zooma in; den gröna knappen med ett streck på för att zooma ut; eller på de gröna pilarna för angränsande kartor.


METAR-TAF: